createdAt,value
2018-08-07T00:00:12.300Z,95.50
2018-08-07T00:02:39.558Z,95.50
2018-08-07T00:05:06.864Z,95.60
2018-08-07T00:07:34.307Z,96.10
2018-08-07T00:10:01.577Z,96.40
2018-08-07T00:12:28.868Z,96.50
2018-08-07T00:14:56.124Z,96.80
2018-08-07T00:17:23.408Z,97.10
2018-08-07T00:19:50.664Z,97.10
2018-08-07T00:22:17.925Z,97.20
2018-08-07T00:24:45.172Z,97.50
2018-08-07T00:27:12.412Z,97.30
2018-08-07T00:29:39.692Z,97.20
2018-08-07T00:32:06.960Z,97.30
2018-08-07T00:34:34.200Z,97.30
2018-08-07T00:37:01.486Z,97.60
2018-08-07T00:39:28.768Z,97.50
2018-08-07T00:41:56.031Z,97.50
2018-08-07T00:44:23.437Z,97.60
2018-08-07T00:46:50.668Z,97.20
2018-08-07T00:49:17.908Z,97.20
2018-08-07T00:51:45.162Z,97.40
2018-08-07T00:54:12.432Z,97.50
2018-08-07T00:56:39.708Z,97.90
2018-08-07T00:59:06.948Z,97.80
2018-08-07T01:01:34.202Z,97.70
2018-08-07T01:04:01.494Z,97.80
2018-08-07T01:06:28.751Z,98.10
2018-08-07T01:08:56.028Z,98.40
2018-08-07T01:11:23.347Z,98.30
2018-08-07T01:13:50.597Z,98.30
2018-08-07T01:16:17.934Z,98.50
2018-08-07T01:18:45.210Z,98.70
2018-08-07T01:21:12.468Z,98.80
2018-08-07T01:23:39.754Z,99.20
2018-08-07T01:26:07.030Z,98.80
2018-08-07T01:28:34.292Z,98.80
2018-08-07T01:31:01.576Z,99.10
2018-08-07T01:33:28.860Z,99.00
2018-08-07T01:35:56.142Z,99.00
2018-08-07T01:38:23.375Z,99.30
2018-08-07T01:43:17.876Z,99.40
2018-08-07T01:45:45.147Z,99.60
2018-08-07T01:48:12.436Z,99.80
2018-08-07T01:50:39.658Z,99.80
2018-08-07T01:53:06.871Z,99.90
2018-08-07T01:58:01.282Z,99.90
2018-08-07T02:00:28.566Z,99.90
2018-08-07T02:02:55.768Z,99.90
2018-08-07T02:05:22.982Z,99.90
2018-08-07T02:07:50.187Z,99.90
2018-08-07T02:10:18.306Z,99.90
2018-08-07T02:12:45.519Z,99.90
2018-08-07T02:15:13.384Z,99.90
2018-08-07T02:17:40.574Z,99.90
2018-08-07T02:20:11.445Z,99.90
2018-08-07T02:22:39.227Z,99.90
2018-08-07T02:25:07.629Z,99.90
2018-08-07T02:27:34.888Z,99.90
2018-08-07T02:30:02.116Z,99.90
2018-08-07T02:32:29.325Z,99.90
2018-08-07T02:34:56.532Z,99.90
2018-08-07T02:37:23.727Z,99.90
2018-08-07T02:39:52.096Z,99.90
2018-08-07T02:42:19.296Z,99.90
2018-08-07T02:44:46.500Z,99.90
2018-08-07T02:47:13.690Z,99.90
2018-08-07T02:49:40.896Z,99.90
2018-08-07T02:52:08.095Z,99.90
2018-08-07T02:54:35.439Z,99.90
2018-08-07T02:57:02.639Z,99.90
2018-08-07T02:59:29.839Z,99.90
2018-08-07T03:01:57.039Z,99.90
2018-08-07T03:04:24.243Z,99.90
2018-08-07T03:06:51.468Z,99.90
2018-08-07T03:09:18.655Z,99.90
2018-08-07T03:11:45.835Z,99.90
2018-08-07T03:14:13.060Z,99.90
2018-08-07T03:16:40.251Z,99.90
2018-08-07T03:19:07.477Z,99.90
2018-08-07T03:21:34.660Z,99.90
2018-08-07T03:24:01.862Z,99.90
2018-08-07T03:26:29.083Z,99.90
2018-08-07T03:28:56.371Z,99.90
2018-08-07T03:31:23.563Z,99.90
2018-08-07T03:33:50.751Z,99.90
2018-08-07T03:36:17.947Z,99.90
2018-08-07T03:38:45.149Z,99.90
2018-08-07T03:41:12.366Z,99.90
2018-08-07T03:43:39.561Z,99.90
2018-08-07T03:46:06.787Z,99.90
2018-08-07T03:48:34.003Z,99.90
2018-08-07T03:51:01.201Z,99.90
2018-08-07T03:53:28.396Z,99.90
2018-08-07T03:55:55.652Z,99.90
2018-08-07T03:58:22.838Z,99.90
2018-08-07T04:00:50.067Z,99.90
2018-08-07T04:03:17.707Z,99.90
2018-08-07T04:05:44.940Z,99.90
2018-08-07T04:08:12.148Z,99.90
2018-08-07T04:10:39.424Z,99.90
2018-08-07T04:15:33.849Z,99.90
2018-08-07T04:18:01.040Z,99.90
2018-08-07T04:20:28.311Z,99.90
2018-08-07T04:22:55.503Z,99.90
2018-08-07T04:25:22.724Z,99.90
2018-08-07T04:27:49.950Z,99.90
2018-08-07T04:30:18.592Z,99.90
2018-08-07T04:32:46.012Z,99.90
2018-08-07T04:35:14.082Z,99.90
2018-08-07T04:37:41.465Z,99.90
2018-08-07T04:40:09.435Z,99.90
2018-08-07T04:42:37.524Z,99.90
2018-08-07T04:45:06.903Z,99.90
2018-08-07T04:47:34.187Z,99.90
2018-08-07T04:50:01.591Z,99.90
2018-08-07T04:52:28.804Z,99.90
2018-08-07T04:54:56.016Z,99.90
2018-08-07T04:59:50.726Z,99.90
2018-08-07T05:02:17.956Z,99.90
2018-08-07T05:04:45.153Z,99.90
2018-08-07T05:07:12.381Z,99.90
2018-08-07T05:09:39.555Z,99.90
2018-08-07T05:12:06.743Z,99.90
2018-08-07T05:14:33.985Z,99.90
2018-08-07T05:17:01.182Z,99.90
2018-08-07T05:19:28.411Z,99.90
2018-08-07T05:21:55.603Z,99.90
2018-08-07T05:24:22.991Z,99.90
2018-08-07T05:26:50.168Z,99.90
2018-08-07T05:29:17.403Z,99.90
2018-08-07T05:31:44.589Z,99.90
2018-08-07T05:36:38.989Z,99.90
2018-08-07T05:39:08.001Z,99.90
2018-08-07T05:41:35.224Z,99.90
2018-08-07T05:44:02.720Z,99.90
2018-08-07T05:46:29.935Z,99.90
2018-08-07T05:48:57.131Z,99.90
2018-08-07T05:51:24.349Z,99.90
2018-08-07T05:56:18.759Z,99.90
2018-08-07T05:58:46.044Z,99.90
2018-08-07T06:01:13.232Z,99.90
2018-08-07T06:03:40.450Z,99.90
2018-08-07T06:08:34.862Z,99.90
2018-08-07T06:11:02.054Z,99.90
2018-08-07T06:13:29.264Z,99.90
2018-08-07T06:15:56.455Z,99.90
2018-08-07T06:18:23.703Z,99.90
2018-08-07T06:20:50.924Z,99.90
2018-08-07T06:23:18.155Z,99.90
2018-08-07T06:25:45.390Z,99.90
2018-08-07T06:28:12.558Z,99.90
2018-08-07T06:30:39.739Z,99.80
2018-08-07T06:35:34.147Z,99.90
2018-08-07T06:38:01.363Z,99.90
2018-08-07T06:40:28.947Z,99.80
2018-08-07T06:42:56.222Z,99.60
2018-08-07T06:45:23.411Z,99.40
2018-08-07T06:47:50.616Z,99.50
2018-08-07T06:50:19.133Z,99.50
2018-08-07T06:52:46.939Z,99.50
2018-08-07T06:55:14.209Z,98.90
2018-08-07T06:57:41.588Z,98.70
2018-08-07T07:00:12.838Z,98.80
2018-08-07T07:02:40.642Z,98.30
2018-08-07T07:05:07.864Z,97.80
2018-08-07T07:07:35.080Z,95.90
2018-08-07T07:10:02.712Z,93.40
2018-08-07T07:12:29.950Z,91.10
2018-08-07T07:14:57.193Z,90.10
2018-08-07T07:17:24.404Z,86.20
2018-08-07T07:19:51.584Z,85.50
2018-08-07T07:22:18.769Z,86.00
2018-08-07T07:24:45.955Z,85.80
2018-08-07T07:27:13.148Z,85.10
2018-08-07T07:29:40.361Z,85.40
2018-08-07T07:32:08.802Z,83.30
2018-08-07T07:34:36.628Z,81.40
2018-08-07T07:37:03.704Z,81.70
2018-08-07T07:39:30.904Z,82.60
2018-08-07T07:41:58.104Z,81.10
2018-08-07T07:44:25.285Z,82.30
2018-08-07T07:46:52.578Z,82.40
2018-08-07T07:49:19.742Z,81.00
2018-08-07T07:51:46.948Z,82.70
2018-08-07T07:54:14.224Z,82.60
2018-08-07T07:56:41.423Z,81.10
2018-08-07T07:59:08.644Z,79.30
2018-08-07T08:01:35.883Z,80.00
2018-08-07T08:04:03.132Z,80.50
2018-08-07T08:06:30.354Z,81.60
2018-08-07T08:08:57.542Z,79.80
2018-08-07T08:11:24.824Z,82.50
2018-08-07T08:13:52.027Z,80.80
2018-08-07T08:16:19.340Z,82.50
2018-08-07T08:18:46.603Z,81.00
2018-08-07T08:21:13.781Z,81.10
2018-08-07T08:23:40.966Z,80.10
2018-08-07T08:26:08.216Z,80.30
2018-08-07T08:28:35.426Z,78.80
2018-08-07T08:31:02.628Z,76.30
2018-08-07T08:33:29.825Z,76.10
2018-08-07T08:35:57.025Z,76.90
2018-08-07T08:38:24.248Z,75.80
2018-08-07T08:40:51.649Z,78.10
2018-08-07T08:43:18.879Z,79.40
2018-08-07T08:45:46.115Z,79.50
2018-08-07T08:48:13.393Z,81.40
2018-08-07T08:50:40.540Z,82.50
2018-08-07T08:53:07.772Z,79.70
2018-08-07T08:55:34.992Z,79.40
2018-08-07T08:58:02.195Z,79.80
2018-08-07T09:02:58.617Z,78.70
2018-08-07T09:05:26.043Z,79.60
2018-08-07T09:07:53.256Z,81.70
2018-08-07T09:10:24.654Z,80.80
2018-08-07T09:12:52.681Z,81.80
2018-08-07T09:15:19.987Z,78.50
2018-08-07T09:17:47.261Z,77.20
2018-08-07T09:20:17.679Z,74.40
2018-08-07T09:22:44.928Z,72.40
2018-08-07T09:25:12.198Z,70.30
2018-08-07T09:27:40.099Z,70.10
2018-08-07T09:30:15.956Z,69.80
2018-08-07T09:32:43.836Z,67.00
2018-08-07T09:35:11.812Z,71.00
2018-08-07T09:37:39.658Z,68.40
2018-08-07T09:40:09.323Z,65.50
2018-08-07T09:42:36.459Z,67.50
2018-08-07T09:45:04.476Z,68.70
2018-08-07T09:47:31.688Z,65.80
2018-08-07T09:49:58.895Z,66.80
2018-08-07T09:52:26.236Z,67.30
2018-08-07T09:54:53.400Z,71.40
2018-08-07T09:57:20.652Z,72.20
2018-08-07T09:59:47.851Z,69.60
2018-08-07T10:02:21.522Z,71.60
2018-08-07T10:04:49.327Z,73.20
2018-08-07T10:07:19.113Z,73.00
2018-08-07T10:09:46.284Z,75.80
2018-08-07T10:12:13.499Z,77.10
2018-08-07T10:14:40.700Z,74.90
2018-08-07T10:17:07.919Z,74.90
2018-08-07T10:19:35.113Z,74.40
2018-08-07T10:22:02.413Z,73.00
2018-08-07T10:24:29.597Z,73.40
2018-08-07T10:26:56.945Z,74.90
2018-08-07T10:29:24.136Z,75.50
2018-08-07T10:31:51.347Z,72.10
2018-08-07T10:34:18.654Z,68.80
2018-08-07T10:36:45.922Z,69.00
2018-08-07T10:39:13.112Z,70.70
2018-08-07T10:44:08.327Z,67.80
2018-08-07T10:46:35.491Z,68.10
2018-08-07T10:49:02.728Z,65.30
2018-08-07T10:51:29.944Z,66.40
2018-08-07T10:56:24.436Z,66.50
2018-08-07T10:58:51.627Z,62.30
2018-08-07T11:01:46.009Z,61.90
2018-08-07T11:04:13.194Z,65.40
2018-08-07T11:06:40.411Z,61.60
2018-08-07T11:09:08.416Z,63.70
2018-08-07T11:11:35.745Z,63.80
2018-08-07T11:14:03.062Z,66.30
2018-08-07T11:16:30.251Z,68.70
2018-08-07T11:18:57.466Z,70.40
2018-08-07T11:21:24.768Z,71.30
2018-08-07T11:23:51.975Z,71.70
2018-08-07T11:26:19.177Z,74.00
2018-08-07T11:28:46.388Z,75.40
2018-08-07T11:31:13.598Z,75.40
2018-08-07T11:33:40.817Z,76.00
2018-08-07T11:36:08.012Z,77.60
2018-08-07T11:38:35.259Z,77.40
2018-08-07T11:41:02.520Z,76.40
2018-08-07T11:43:29.770Z,76.70
2018-08-07T11:45:57.008Z,76.20
2018-08-07T11:48:24.308Z,77.50
2018-08-07T11:50:51.436Z,77.70
2018-08-07T11:53:18.653Z,77.50
2018-08-07T11:55:45.844Z,76.60
2018-08-07T11:58:13.039Z,77.40
2018-08-07T12:00:40.244Z,77.50
2018-08-07T12:03:08.755Z,78.70
2018-08-07T12:05:35.972Z,79.40
2018-08-07T12:08:03.450Z,79.70
2018-08-07T12:10:30.631Z,79.50
2018-08-07T12:12:57.867Z,80.10
2018-08-07T12:15:25.600Z,80.20
2018-08-07T12:17:53.021Z,80.50
2018-08-07T12:20:20.309Z,79.90
2018-08-07T12:22:47.663Z,81.40
2018-08-07T12:25:15.771Z,81.30
2018-08-07T12:27:43.051Z,81.50
2018-08-07T12:30:13.580Z,82.70
2018-08-07T12:32:40.811Z,81.70
2018-08-07T12:35:08.539Z,82.40
2018-08-07T12:37:35.981Z,82.10
2018-08-07T12:40:03.805Z,82.90
2018-08-07T12:42:30.997Z,81.90
2018-08-07T12:44:58.210Z,81.90
2018-08-07T12:47:25.439Z,83.00
2018-08-07T12:49:52.651Z,83.40
2018-08-07T12:52:19.855Z,83.60
2018-08-07T12:54:47.070Z,84.00
2018-08-07T12:57:14.291Z,84.30
2018-08-07T12:59:41.511Z,84.60
2018-08-07T13:02:08.692Z,85.10
2018-08-07T13:04:35.939Z,85.20
2018-08-07T13:07:03.339Z,86.30
2018-08-07T13:09:30.557Z,86.70
2018-08-07T13:11:57.783Z,89.10
2018-08-07T13:14:24.974Z,90.40
2018-08-07T13:16:52.172Z,90.40
2018-08-07T13:19:19.397Z,91.90
2018-08-07T13:21:46.712Z,95.80
2018-08-07T13:24:13.916Z,99.20
2018-08-07T13:26:41.171Z,99.90
2018-08-07T13:29:08.381Z,99.90
2018-08-07T13:31:35.636Z,99.90
2018-08-07T13:34:02.815Z,99.90
2018-08-07T13:36:29.999Z,99.90
2018-08-07T13:38:57.258Z,99.90
2018-08-07T13:41:24.474Z,99.90
2018-08-07T13:43:51.651Z,99.90
2018-08-07T13:46:18.885Z,99.90
2018-08-07T13:48:46.075Z,99.90
2018-08-07T13:51:13.302Z,99.90
2018-08-07T13:53:40.512Z,99.90
2018-08-07T13:56:07.711Z,99.90
2018-08-07T13:58:34.919Z,99.90
2018-08-07T14:01:02.136Z,99.90
2018-08-07T14:03:29.356Z,99.90
2018-08-07T14:05:56.589Z,99.90
2018-08-07T14:08:23.783Z,99.90
2018-08-07T14:10:50.980Z,99.90
2018-08-07T14:13:18.183Z,99.90
2018-08-07T14:15:45.399Z,99.30
2018-08-07T14:18:12.636Z,99.90
2018-08-07T14:20:39.930Z,99.90
2018-08-07T14:23:07.110Z,99.90
2018-08-07T14:25:34.327Z,99.90
2018-08-07T14:28:01.551Z,99.90
2018-08-07T14:30:29.960Z,99.90
2018-08-07T14:32:59.926Z,99.90
2018-08-07T14:35:27.191Z,99.90
2018-08-07T14:37:54.479Z,99.90
2018-08-07T14:40:25.263Z,99.90
2018-08-07T14:42:52.970Z,99.90
2018-08-07T14:45:24.490Z,99.90
2018-08-07T14:47:52.516Z,99.90
2018-08-07T14:50:22.034Z,99.90
2018-08-07T14:52:49.418Z,99.90
2018-08-07T14:55:16.677Z,99.90
2018-08-07T14:57:43.910Z,99.90
2018-08-07T15:00:14.080Z,99.90
2018-08-07T15:02:41.275Z,99.90
2018-08-07T15:05:08.726Z,99.90
2018-08-07T15:07:36.042Z,99.90
2018-08-07T15:10:05.335Z,99.90
2018-08-07T15:12:32.603Z,99.90
2018-08-07T15:14:59.765Z,99.90
2018-08-07T15:17:27.268Z,99.90
2018-08-07T15:19:54.523Z,99.90
2018-08-07T15:22:21.822Z,99.90
2018-08-07T15:24:49.022Z,99.90
2018-08-07T15:27:16.292Z,99.90
2018-08-07T15:29:43.671Z,99.90
2018-08-07T15:32:10.927Z,99.90
2018-08-07T15:34:38.134Z,99.90
2018-08-07T15:37:05.467Z,99.90
2018-08-07T15:39:32.669Z,99.90
2018-08-07T15:41:59.888Z,99.90
2018-08-07T15:44:27.063Z,99.90
2018-08-07T15:46:54.271Z,99.60
2018-08-07T15:49:21.471Z,99.90
2018-08-07T15:51:48.688Z,99.80
2018-08-07T15:54:15.894Z,99.90
2018-08-07T15:56:43.348Z,99.80
2018-08-07T15:59:10.532Z,99.70
2018-08-07T16:01:37.727Z,99.40
2018-08-07T16:04:04.964Z,99.70
2018-08-07T16:06:32.304Z,99.90
2018-08-07T16:08:59.524Z,99.90
2018-08-07T16:11:26.751Z,99.90
2018-08-07T16:13:53.979Z,99.90
2018-08-07T16:16:21.184Z,99.90
2018-08-07T16:18:48.411Z,99.90
2018-08-07T16:21:15.576Z,99.90
2018-08-07T16:23:42.980Z,99.90
2018-08-07T16:26:10.195Z,99.90
2018-08-07T16:28:37.399Z,99.90
2018-08-07T16:31:04.587Z,99.90
2018-08-07T16:33:31.782Z,99.70
2018-08-07T16:35:58.995Z,99.90
2018-08-07T16:38:26.223Z,99.90
2018-08-07T16:40:53.684Z,99.90
2018-08-07T16:43:20.954Z,99.60
2018-08-07T16:45:48.147Z,99.90
2018-08-07T16:48:15.531Z,99.60
2018-08-07T16:50:42.727Z,99.50
2018-08-07T16:53:10.043Z,99.90
2018-08-07T16:55:37.245Z,98.90
2018-08-07T16:58:04.492Z,98.60
2018-08-07T17:00:31.719Z,99.00
2018-08-07T17:02:58.927Z,99.50
2018-08-07T17:05:26.172Z,99.40
2018-08-07T17:07:53.391Z,99.00
2018-08-07T17:10:26.631Z,99.00
2018-08-07T17:12:53.892Z,98.70
2018-08-07T17:15:21.273Z,99.10
2018-08-07T17:17:48.713Z,99.60
2018-08-07T17:20:18.458Z,99.20
2018-08-07T17:22:46.133Z,99.40
2018-08-07T17:25:15.346Z,99.60
2018-08-07T17:27:43.427Z,99.30
2018-08-07T17:30:14.265Z,99.60
2018-08-07T17:32:41.566Z,99.70
2018-08-07T17:35:10.968Z,99.70
2018-08-07T17:37:38.165Z,99.90
2018-08-07T17:40:06.805Z,99.90
2018-08-07T17:42:34.031Z,99.80
2018-08-07T17:45:01.241Z,99.50
2018-08-07T17:47:28.468Z,99.40
2018-08-07T17:49:55.719Z,99.60
2018-08-07T17:52:22.960Z,99.90
2018-08-07T17:54:50.276Z,99.90
2018-08-07T17:57:17.590Z,99.80
2018-08-07T17:59:44.872Z,99.90
2018-08-07T18:02:12.120Z,99.90
2018-08-07T18:04:39.474Z,99.90
2018-08-07T18:07:06.770Z,99.90
2018-08-07T18:09:34.119Z,99.90
2018-08-07T18:12:01.508Z,99.90
2018-08-07T18:14:28.959Z,99.90
2018-08-07T18:16:56.179Z,99.90
2018-08-07T18:19:23.408Z,99.90
2018-08-07T18:21:50.576Z,99.90
2018-08-07T18:24:18.120Z,99.90
2018-08-07T18:26:45.343Z,99.90
2018-08-07T18:29:12.561Z,99.90
2018-08-07T18:31:39.942Z,99.90
2018-08-07T18:34:07.262Z,99.90
2018-08-07T18:36:34.695Z,99.90
2018-08-07T18:39:02.013Z,99.90
2018-08-07T18:41:29.274Z,99.90
2018-08-07T18:43:56.563Z,99.90
2018-08-07T18:46:23.748Z,99.90
2018-08-07T18:48:51.023Z,99.90
2018-08-07T18:51:18.724Z,99.90
2018-08-07T18:53:45.947Z,99.90
2018-08-07T18:56:13.217Z,99.90
2018-08-07T18:58:40.500Z,99.50
2018-08-07T19:01:07.742Z,98.80
2018-08-07T19:03:35.094Z,98.80
2018-08-07T19:06:02.375Z,99.30
2018-08-07T19:08:29.677Z,98.80
2018-08-07T19:10:56.885Z,99.10
2018-08-07T19:13:24.337Z,99.70
2018-08-07T19:15:51.567Z,99.90
2018-08-07T19:18:19.005Z,99.90
2018-08-07T19:20:46.254Z,99.90
2018-08-07T19:23:13.483Z,99.90
2018-08-07T19:25:40.848Z,99.90
2018-08-07T19:28:08.163Z,99.90
2018-08-07T19:30:35.516Z,99.90
2018-08-07T19:33:02.896Z,99.90
2018-08-07T19:35:30.220Z,99.90
2018-08-07T19:37:57.423Z,99.90
2018-08-07T19:40:24.842Z,99.90
2018-08-07T19:42:52.125Z,99.90
2018-08-07T19:45:19.591Z,99.90
2018-08-07T19:47:47.035Z,99.90
2018-08-07T19:50:15.931Z,99.90
2018-08-07T19:52:43.273Z,99.90
2018-08-07T19:55:12.415Z,99.90
2018-08-07T19:57:39.940Z,99.90
2018-08-07T20:00:10.607Z,99.90
2018-08-07T20:02:37.839Z,99.90
2018-08-07T20:05:05.443Z,99.90
2018-08-07T20:07:32.654Z,99.90
2018-08-07T20:09:59.870Z,99.90
2018-08-07T20:12:27.054Z,99.90
2018-08-07T20:14:54.245Z,99.90
2018-08-07T20:17:21.489Z,99.90
2018-08-07T20:19:48.688Z,99.90
2018-08-07T20:22:16.491Z,99.90
2018-08-07T20:24:43.721Z,99.90
2018-08-07T20:27:11.358Z,99.90
2018-08-07T20:29:38.568Z,99.90
2018-08-07T20:32:06.159Z,99.90
2018-08-07T20:34:33.347Z,99.90
2018-08-07T20:37:00.557Z,99.90
2018-08-07T20:39:27.782Z,99.90
2018-08-07T20:41:54.974Z,99.90
2018-08-07T20:44:22.175Z,99.90
2018-08-07T20:46:49.449Z,99.90
2018-08-07T20:49:16.593Z,99.90
2018-08-07T20:51:43.848Z,99.90
2018-08-07T20:54:11.020Z,99.90
2018-08-07T20:56:38.239Z,99.90
2018-08-07T20:59:05.436Z,99.90
2018-08-07T21:01:32.653Z,99.90
2018-08-07T21:03:59.857Z,99.90
2018-08-07T21:06:27.040Z,99.90
2018-08-07T21:08:54.240Z,99.90
2018-08-07T21:11:21.439Z,99.90
2018-08-07T21:13:48.640Z,99.90
2018-08-07T21:16:15.888Z,99.90
2018-08-07T21:18:43.079Z,99.90
2018-08-07T21:21:10.302Z,99.90
2018-08-07T21:23:37.503Z,99.90
2018-08-07T21:26:04.731Z,99.90
2018-08-07T21:28:31.980Z,99.90
2018-08-07T21:30:59.174Z,99.90
2018-08-07T21:33:26.412Z,99.90
2018-08-07T21:35:53.802Z,99.90
2018-08-07T21:38:21.039Z,99.90
2018-08-07T21:40:48.255Z,99.90
2018-08-07T21:43:15.468Z,99.90
2018-08-07T21:45:42.642Z,99.90
2018-08-07T21:48:09.867Z,99.90
2018-08-07T21:50:37.056Z,99.90
2018-08-07T21:53:04.379Z,99.90
2018-08-07T21:55:31.730Z,99.90
2018-08-07T21:57:58.939Z,99.90
2018-08-07T22:00:36.523Z,99.90
2018-08-07T22:03:03.763Z,99.90
2018-08-07T22:05:30.952Z,99.90
2018-08-07T22:07:58.279Z,99.90
2018-08-07T22:10:25.572Z,99.90
2018-08-07T22:12:52.779Z,99.90
2018-08-07T22:15:20.107Z,99.90
2018-08-07T22:17:47.503Z,99.90
2018-08-07T22:20:14.786Z,99.90
2018-08-07T22:22:42.152Z,99.90
2018-08-07T22:25:10.003Z,99.90
2018-08-07T22:27:37.340Z,99.90
2018-08-07T22:30:06.669Z,99.90
2018-08-07T22:32:33.868Z,99.90
2018-08-07T22:35:01.098Z,99.90
2018-08-07T22:37:28.382Z,99.90
2018-08-07T22:39:55.681Z,99.90
2018-08-07T22:42:22.951Z,99.90
2018-08-07T22:44:50.421Z,99.90
2018-08-07T22:47:18.718Z,99.90
2018-08-07T22:49:46.037Z,99.90
2018-08-07T22:52:13.359Z,99.90
2018-08-07T22:54:40.680Z,99.90
2018-08-07T22:57:08.011Z,99.90
2018-08-07T22:59:35.491Z,99.90
2018-08-07T23:02:02.726Z,99.90
2018-08-07T23:04:29.984Z,99.90
2018-08-07T23:06:57.242Z,99.90
2018-08-07T23:09:24.680Z,99.90
2018-08-07T23:11:51.941Z,99.90
2018-08-07T23:14:19.115Z,99.90
2018-08-07T23:16:46.504Z,99.90
2018-08-07T23:19:13.832Z,99.90
2018-08-07T23:21:41.015Z,99.90
2018-08-07T23:24:08.292Z,99.90
2018-08-07T23:26:35.543Z,99.90
2018-08-07T23:29:02.861Z,99.90
2018-08-07T23:31:30.094Z,99.90
2018-08-07T23:33:57.303Z,99.90
2018-08-07T23:36:24.692Z,99.90
2018-08-07T23:38:51.858Z,99.90
2018-08-07T23:41:19.175Z,99.90
2018-08-07T23:43:46.407Z,99.90
2018-08-07T23:46:13.662Z,99.90
2018-08-07T23:48:40.891Z,99.90
2018-08-07T23:51:08.279Z,99.90
2018-08-07T23:53:35.525Z,99.90
2018-08-07T23:56:02.772Z,99.90
2018-08-07T23:58:29.997Z,99.90
